Time;durP1;ratioP1;P1;durP2;ratioP2;P2;SDS_P1;SDS_P2;PMS_P1;PMS_P2;Temp;Humidity;BMP_temperature;BMP_pressure;BME280_temperature;BME280_humidity;BME280_pressure;Samples;Min_cycle;Max_cycle;Signal;HPM_P1;HPM_P2
2024/03/09 00:00:17;;;;;;;28.27;15.18;;;7.70;99.90;;;;;;4982140;28;20119;-88
2024/03/09 00:02:50;;;;;;;26.95;15.07;;;7.80;99.90;;;;;;4981741;28;20094;-86
2024/03/09 00:05:19;;;;;;;27.13;13.88;;;8.70;99.90;;;;;;4971319;29;20054;-87
2024/03/09 00:07:45;;;;;;;26.45;14.15;;;8.00;99.90;;;;;;4962551;29;20019;-87
2024/03/09 00:10:14;;;;;;;27.92;13.90;;;7.70;99.90;;;;;;4946430;29;20035;-87
2024/03/09 00:12:42;;;;;;;25.02;14.35;;;9.20;99.90;;;;;;4962264;28;20031;-86
2024/03/09 00:15:11;;;;;;;28.63;14.27;;;7.70;99.90;;;;;;4979026;29;20095;-89
2024/03/09 00:17:42;;;;;;;27.13;14.52;;;7.60;99.90;;;;;;4962253;29;20050;-87
2024/03/09 00:20:12;;;;;;;24.92;13.57;;;7.60;99.90;;;;;;4962767;29;20023;-87
2024/03/09 00:22:39;;;;;;;27.17;14.48;;;7.60;99.90;;;;;;4979733;28;20043;-84
2024/03/09 00:25:05;;;;;;;25.48;13.90;;;7.60;99.90;;;;;;4962921;29;20091;-84
2024/03/09 00:27:30;;;;;;;26.80;13.98;;;7.60;99.90;;;;;;4979471;28;20019;-87
2024/03/09 00:29:56;;;;;;;25.77;14.18;;;7.60;99.90;;;;;;4962084;29;20031;-88
2024/03/09 00:32:29;;;;;;;27.73;14.40;;;7.80;99.90;;;;;;4962147;29;20015;-86
2024/03/09 00:34:55;;;;;;;25.90;13.88;;;8.40;99.90;;;;;;4961663;29;20083;-87
2024/03/09 00:37:20;;;;;;;28.92;14.15;;;7.60;99.90;;;;;;4961950;29;20024;-87
2024/03/09 00:39:47;;;;;;;22.88;13.65;;;8.00;99.90;;;;;;4961564;29;20047;-85
2024/03/09 00:42:19;;;;;;;23.75;13.82;;;8.50;99.90;;;;;;4961668;29;20027;-86
2024/03/09 00:44:45;;;;;;;24.48;13.95;;;7.70;99.90;;;;;;4961804;29;20039;-87
2024/03/09 00:47:11;;;;;;;23.67;13.32;;;7.70;99.90;;;;;;4978186;29;20035;-84
2024/03/09 00:49:37;;;;;;;22.58;13.05;;;7.80;99.90;;;;;;4961916;29;20059;-89
2024/03/09 00:52:06;;;;;;;24.40;12.43;;;7.80;99.90;;;;;;4962749;29;20019;-85
2024/03/09 00:54:35;;;;;;;25.33;13.77;;;7.80;99.90;;;;;;4983344;28;20080;-86
2024/03/09 00:57:01;;;;;;;24.27;13.05;;;8.50;99.90;;;;;;4999785;28;20023;-88
2024/03/09 00:59:28;;;;;;;22.10;12.40;;;8.00;99.90;;;;;;4982414;28;20023;-90
2024/03/09 01:01:55;;;;;;;26.10;13.02;;;8.20;99.90;;;;;;4980517;28;20103;-84
2024/03/09 01:04:22;;;;;;;24.33;12.77;;;8.00;99.90;;;;;;4997278;28;20026;-88
2024/03/09 01:07:04;;;;;;;22.85;13.38;;;7.80;99.90;;;;;;4981156;23;20035;-88
2024/03/09 01:09:47;;;;;;;24.52;12.48;;;7.80;99.90;;;;;;4921272;29;20091;-88
2024/03/09 01:12:19;;;;;;;22.98;11.90;;;7.70;99.90;;;;;;4921811;29;20027;-86
2024/03/09 01:15:03;;;;;;;24.67;12.77;;;7.70;99.90;;;;;;4937023;29;20692;-88
2024/03/09 01:17:36;;;;;;;22.42;12.13;;;7.60;99.90;;;;;;4921683;29;20035;-86
2024/03/09 01:20:08;;;;;;;23.70;13.05;;;7.60;99.90;;;;;;4922210;29;20478;-87
2024/03/09 01:22:44;;;;;;;22.90;13.05;;;7.60;99.90;;;;;;4931244;29;20508;-88
2024/03/09 01:26:09;;;;;;;23.77;12.43;;;7.60;99.90;;;;;;4929986;29;20046;-87
2024/03/09 01:35:01;;;;;;;25.50;13.65;;;7.70;99.90;;;;;;4970670;28;20050;-88
2024/03/09 01:37:29;;;;;;;22.38;12.30;;;7.60;99.90;;;;;;4929565;28;20042;-85
2024/03/09 01:40:35;;;;;;;24.25;12.23;;;7.60;99.90;;;;;;4955892;28;20042;-86
2024/03/09 01:43:26;;;;;;;22.40;12.35;;;7.60;99.90;;;;;;4972968;28;20051;-87
2024/03/09 01:46:33;;;;;;;24.08;12.25;;;7.60;99.90;;;;;;4939852;29;20447;-88
2024/03/09 01:49:08;;;;;;;19.08;11.90;;;7.50;99.90;;;;;;4954360;28;20042;-87
2024/03/09 01:52:18;;;;;;;23.75;12.30;;;7.50;99.90;;;;;;4969301;28;20069;-87
2024/03/09 01:55:12;;;;;;;20.88;12.43;;;7.40;99.90;;;;;;4968568;28;20037;-87
2024/03/09 01:58:20;;;;;;;23.02;12.23;;;7.50;99.90;;;;;;4972403;28;20033;-87
2024/03/09 02:00:58;;;;;;;19.67;11.30;;;7.40;99.90;;;;;;4960836;28;20077;-87
2024/03/09 02:03:59;;;;;;;23.40;11.88;;;7.40;99.90;;;;;;4956349;28;20034;-86
2024/03/09 02:06:36;;;;;;;23.50;12.07;;;7.40;99.90;;;;;;4968631;28;20073;-88
2024/03/09 02:09:13;;;;;;;19.95;11.65;;;7.30;99.90;;;;;;4973550;28;20110;-87
2024/03/09 02:12:09;;;;;;;21.23;11.68;;;7.30;99.90;;;;;;4969438;28;20034;-89
2024/03/09 02:14:44;;;;;;;21.90;12.68;;;7.30;99.90;;;;;;4963229;28;20030;-90
2024/03/09 02:17:15;;;;;;;17.58;10.98;;;7.20;99.90;;;;;;4960033;28;20081;-91
2024/03/09 02:19:48;;;;;;;24.95;12.98;;;7.30;99.90;;;;;;4943191;28;20101;-90
2024/03/09 02:22:27;;;;;;;20.10;12.20;;;7.20;99.90;;;;;;4954263;28;20039;-90
2024/03/09 02:25:01;;;;;;;22.33;12.05;;;7.20;99.90;;;;;;4938572;28;20074;-86
2024/03/09 02:27:44;;;;;;;21.40;12.00;;;7.10;99.90;;;;;;4973382;28;20070;-88
2024/03/09 02:30:21;;;;;;;19.88;11.27;;;7.10;99.90;;;;;;4951012;28;20040;-89
2024/03/09 02:32:53;;;;;;;22.48;11.73;;;7.10;99.90;;;;;;4971880;28;20518;-87
2024/03/09 02:35:25;;;;;;;20.65;11.77;;;7.10;99.90;;;;;;4956694;28;20038;-87
2024/03/09 02:37:55;;;;;;;21.33;11.20;;;7.10;99.90;;;;;;4916579;29;20126;-86
2024/03/09 02:40:45;;;;;;;19.73;10.98;;;7.10;99.90;;;;;;4941628;28;20061;-87
2024/03/09 02:43:22;;;;;;;19.80;11.07;;;7.00;99.90;;;;;;4953960;28;20027;-87
2024/03/09 02:46:01;;;;;;;20.98;11.60;;;7.00;99.90;;;;;;4972975;28;20034;-88
2024/03/09 02:48:54;;;;;;;22.00;11.50;;;7.10;99.90;;;;;;4971998;28;20034;-88
2024/03/09 02:51:29;;;;;;;18.67;10.90;;;7.10;99.90;;;;;;4937371;28;20051;-87
2024/03/09 02:54:08;;;;;;;23.15;11.50;;;7.00;99.90;;;;;;4954274;28;20082;-84
2024/03/09 02:56:43;;;;;;;25.48;11.73;;;7.00;99.90;;;;;;4976184;28;20081;-88
2024/03/09 02:59:19;;;;;;;18.88;10.93;;;7.10;99.90;;;;;;4966877;28;20105;-88
2024/03/09 03:05:25;;;;;;;18.77;10.55;;;7.00;99.90;;;;;;4978486;28;20042;-89
2024/03/09 03:08:04;;;;;;;21.83;10.98;;;7.00;99.90;;;;;;4969751;28;20019;-88
2024/03/09 03:10:43;;;;;;;21.85;11.60;;;7.00;99.90;;;;;;4974372;28;20139;-86
2024/03/09 03:13:19;;;;;;;20.95;11.38;;;6.90;99.90;;;;;;4965065;28;20049;-84
2024/03/09 03:15:49;;;;;;;22.20;11.43;;;6.90;99.90;;;;;;4950912;28;20111;-83
2024/03/09 03:18:34;;;;;;;22.85;10.57;;;6.80;99.90;;;;;;4966715;28;20046;-83
2024/03/09 03:21:14;;;;;;;18.00;10.05;;;6.80;99.90;;;;;;4965149;28;20065;-89
2024/03/09 03:23:58;;;;;;;18.83;10.50;;;6.80;99.90;;;;;;4967209;28;20062;-87
2024/03/09 03:26:34;;;;;;;22.65;11.07;;;6.90;99.90;;;;;;4953975;28;20459;-88
2024/03/09 03:29:07;;;;;;;20.05;10.75;;;6.80;99.90;;;;;;4954376;28;20035;-87
2024/03/09 03:31:45;;;;;;;19.05;10.88;;;6.80;99.90;;;;;;4941470;28;20141;-87
2024/03/09 03:34:25;;;;;;;20.60;10.35;;;6.80;99.90;;;;;;4968477;28;20443;-88
2024/03/09 03:37:20;;;;;;;21.85;11.52;;;6.80;99.90;;;;;;4951122;28;20051;-87
2024/03/09 03:39:49;;;;;;;20.77;10.55;;;6.70;99.90;;;;;;4930376;28;21276;-87
2024/03/09 03:42:28;;;;;;;20.23;11.45;;;6.70;99.90;;;;;;4965812;28;20043;-88
2024/03/09 03:45:02;;;;;;;17.92;10.43;;;6.80;99.90;;;;;;4954772;28;20089;-88
2024/03/09 03:47:41;;;;;;;19.45;10.90;;;6.70;99.90;;;;;;4940251;28;20027;-89
2024/03/09 03:50:23;;;;;;;20.77;10.40;;;6.70;99.90;;;;;;4954867;28;20035;-85
2024/03/09 03:52:57;;;;;;;23.50;11.27;;;6.70;99.90;;;;;;4971672;28;20031;-89
2024/03/09 03:55:28;;;;;;;18.42;10.43;;;6.70;99.90;;;;;;4967461;28;20050;-87
2024/03/09 03:58:09;;;;;;;18.92;10.43;;;6.70;99.90;;;;;;4971157;28;20475;-88
2024/03/09 04:01:11;;;;;;;19.98;10.68;;;6.70;99.90;;;;;;4946789;28;20039;-87
2024/03/09 04:04:00;;;;;;;18.80;10.23;;;6.80;99.90;;;;;;4967876;28;20035;-88
2024/03/09 04:06:35;;;;;;;18.25;10.63;;;6.80;99.90;;;;;;4951620;28;20031;-85
2024/03/09 04:09:29;;;;;;;20.58;10.85;;;6.80;99.90;;;;;;4959270;28;20041;-88
2024/03/09 04:12:24;;;;;;;19.55;10.07;;;6.70;99.90;;;;;;4966085;28;20043;-87
2024/03/09 04:15:02;;;;;;;17.92;10.48;;;6.60;99.90;;;;;;4972522;28;20031;-87
2024/03/09 04:18:06;;;;;;;17.75;10.80;;;6.60;99.90;;;;;;4963286;28;20039;-87
2024/03/09 04:20:40;;;;;;;17.80;9.80;;;6.60;99.90;;;;;;4909881;29;20115;-87
2024/03/09 04:23:21;;;;;;;19.08;10.80;;;6.60;99.90;;;;;;4927131;28;20043;-88
2024/03/09 04:26:14;;;;;;;19.20;10.57;;;6.60;99.90;;;;;;4961546;28;20038;-86
2024/03/09 04:28:46;;;;;;;19.13;10.50;;;6.60;99.90;;;;;;4965234;28;20019;-89
2024/03/09 04:31:33;;;;;;;20.83;10.77;;;6.50;99.90;;;;;;4975697;28;20124;-88
2024/03/09 04:34:17;;;;;;;21.17;10.45;;;6.70;99.90;;;;;;4955746;28;20047;-85
2024/03/09 04:36:48;;;;;;;17.23;10.10;;;6.50;99.90;;;;;;4959625;28;20035;-86
2024/03/09 04:39:25;;;;;;;16.45;9.20;;;6.50;99.90;;;;;;4958969;28;20063;-87
2024/03/09 04:42:07;;;;;;;19.95;10.68;;;6.50;99.90;;;;;;4968360;28;20050;-86
2024/03/09 04:44:57;;;;;;;22.75;10.73;;;6.50;99.90;;;;;;4969482;28;20033;-86
2024/03/09 04:47:27;;;;;;;17.48;9.85;;;6.50;99.90;;;;;;4957295;28;20035;-88
2024/03/09 04:49:55;;;;;;;18.50;9.07;;;6.50;99.90;;;;;;4949157;28;20031;-86
2024/03/09 04:52:26;;;;;;;17.92;9.82;;;6.50;99.90;;;;;;4976679;28;20042;-87
2024/03/09 04:55:07;;;;;;;14.80;9.57;;;6.50;99.90;;;;;;4964749;28;20031;-88
2024/03/09 04:57:38;;;;;;;18.10;9.88;;;6.50;99.90;;;;;;4941867;28;20031;-85
2024/03/09 05:00:31;;;;;;;17.95;8.90;;;6.60;99.90;;;;;;4948857;28;20031;-89
2024/03/09 05:03:17;;;;;;;16.90;9.73;;;6.50;99.90;;;;;;4937681;28;20063;-85
2024/03/09 05:06:01;;;;;;;17.08;9.13;;;6.50;99.90;;;;;;4974695;28;20034;-85
2024/03/09 05:08:33;;;;;;;17.33;8.90;;;6.50;99.90;;;;;;4969286;28;20113;-87
2024/03/09 05:11:03;;;;;;;18.60;9.10;;;6.50;99.90;;;;;;4954791;28;20495;-88
2024/03/09 05:13:31;;;;;;;18.17;9.63;;;6.50;99.90;;;;;;4961272;28;20128;-87
2024/03/09 05:16:01;;;;;;;18.70;9.80;;;6.40;99.90;;;;;;4969556;28;20056;-85
2024/03/09 05:18:31;;;;;;;17.35;9.73;;;6.40;99.90;;;;;;4940492;28;20055;-83
2024/03/09 05:21:03;;;;;;;18.67;9.30;;;6.40;99.90;;;;;;4966420;28;20059;-89
2024/03/09 05:23:54;;;;;;;14.68;8.52;;;6.40;99.90;;;;;;4939880;28;20051;-87
2024/03/09 05:26:32;;;;;;;17.25;9.65;;;6.30;99.90;;;;;;4969884;28;20039;-88
2024/03/09 05:29:08;;;;;;;17.92;9.48;;;6.30;99.90;;;;;;4967252;28;20468;-86
2024/03/09 05:32:07;;;;;;;18.83;8.65;;;6.30;99.90;;;;;;4954080;28;20407;-86
2024/03/09 05:35:03;;;;;;;16.90;9.60;;;6.30;99.90;;;;;;4961755;28;20053;-88
2024/03/09 05:38:50;;;;;;;15.45;8.57;;;6.30;99.90;;;;;;4983452;28;20058;-86
2024/03/09 05:41:30;;;;;;;21.73;9.77;;;6.30;99.90;;;;;;4980899;28;20049;-88
2024/03/09 05:48:19;;;;;;;16.20;9.18;;;6.30;99.90;;;;;;4930766;29;20042;-87
2024/03/09 05:51:18;;;;;;;15.05;9.00;;;6.20;99.90;;;;;;4931742;29;20032;-85
2024/03/09 05:54:48;;;;;;;17.27;8.85;;;6.30;99.90;;;;;;4914702;29;20048;-88
2024/03/09 06:00:31;;;;;;;18.85;8.32;;;6.20;99.90;;;;;;4942476;29;19986;-87
2024/03/09 06:04:02;;;;;;;15.68;8.75;;;6.20;99.90;;;;;;4929166;29;20139;-88
2024/03/09 06:07:31;;;;;;;17.27;8.80;;;6.20;99.90;;;;;;4911929;29;20497;-85
2024/03/09 06:11:06;;;;;;;17.63;8.85;;;6.20;99.90;;;;;;4901597;29;20044;-86
2024/03/09 06:14:20;;;;;;;20.55;8.55;;;6.10;99.90;;;;;;4913654;29;20035;-87
2024/03/09 06:17:39;;;;;;;16.75;9.35;;;6.10;99.90;;;;;;4937278;28;20035;-87
2024/03/09 06:20:42;;;;;;;;;;;6.10;99.90;;;;;;4922385;28;20031;-87
2024/03/09 06:24:30;;;;;;;18.75;9.15;;;6.10;99.90;;;;;;4910927;29;19911;-87
2024/03/09 06:27:48;;;;;;;18.65;8.70;;;6.10;99.90;;;;;;4798392;29;20033;-88
2024/03/09 06:31:12;;;;;;;13.68;7.75;;;6.10;99.90;;;;;;4895532;29;20400;-87
2024/03/09 06:34:55;;;;;;;20.27;8.68;;;6.10;99.90;;;;;;4851800;29;20038;-86
2024/03/09 06:38:04;;;;;;;17.23;8.63;;;6.00;99.90;;;;;;4853006;29;20219;-88
2024/03/09 06:44:41;;;;;;;17.77;8.68;;;6.10;99.90;;;;;;4889025;29;20051;-87
2024/03/09 06:47:40;;;;;;;17.88;9.18;;;6.10;99.90;;;;;;4900653;29;20067;-88
2024/03/09 07:11:56;;;;;;;15.10;8.65;;;6.10;99.90;;;;;;4917417;29;20019;-87
2024/03/09 07:15:53;;;;;;;16.65;9.20;;;6.10;99.90;;;;;;4870315;29;20047;-86
2024/03/09 07:18:47;;;;;;;16.02;8.63;;;6.30;99.90;;;;;;4911288;29;20078;-87
2024/03/09 07:21:16;;;;;;;16.60;8.15;;;6.30;99.90;;;;;;4969129;29;20050;-83
2024/03/09 07:23:42;;;;;;;18.35;9.57;;;6.40;99.90;;;;;;4971295;28;20431;-84
2024/03/09 07:26:12;;;;;;;16.67;9.50;;;6.80;99.90;;;;;;4979864;28;20027;-86
2024/03/09 07:28:38;;;;;;;16.50;9.27;;;6.80;99.90;;;;;;4955708;28;20023;-86
2024/03/09 07:31:05;;;;;;;14.90;8.55;;;6.60;99.90;;;;;;4969254;28;20265;-87
2024/03/09 07:33:32;;;;;;;15.95;8.93;;;6.60;99.90;;;;;;4975356;28;20038;-88
2024/03/09 07:35:58;;;;;;;19.42;9.88;;;8.40;99.90;;;;;;4984056;28;20027;-86
2024/03/09 07:38:24;;;;;;;16.05;9.15;;;6.70;99.90;;;;;;4982541;28;20027;-84
2024/03/09 07:40:50;;;;;;;19.15;9.30;;;7.00;99.90;;;;;;4967739;28;20027;-86
2024/03/09 07:43:19;;;;;;;16.27;9.48;;;6.80;99.90;;;;;;4967008;28;20375;-85
2024/03/09 07:45:45;;;;;;;17.63;9.57;;;7.10;99.90;;;;;;4976679;28;20027;-84
2024/03/09 07:48:16;;;;;;;14.77;8.50;;;7.20;99.90;;;;;;4985808;28;20054;-87
2024/03/09 07:50:46;;;;;;;15.43;8.95;;;7.30;99.90;;;;;;4973002;28;20023;-86
2024/03/09 07:53:12;;;;;;;18.60;9.38;;;8.20;99.90;;;;;;4968306;28;20037;-84
2024/03/09 07:55:38;;;;;;;18.83;9.65;;;7.50;99.90;;;;;;4962084;28;20031;-85
2024/03/09 07:58:04;;;;;;;16.95;9.32;;;7.50;99.90;;;;;;4986253;28;20039;-87
2024/03/09 08:00:33;;;;;;;16.88;9.35;;;7.60;99.90;;;;;;4970139;28;20034;-82
2024/03/09 08:03:01;;;;;;;24.80;13.35;;;8.30;99.90;;;;;;4967127;28;20027;-84
2024/03/09 08:05:28;;;;;;;17.42;9.63;;;7.70;99.90;;;;;;4967758;28;20090;-86
2024/03/09 08:07:55;;;;;;;19.27;9.88;;;7.80;99.90;;;;;;4961183;28;20035;-84
2024/03/09 08:10:25;;;;;;;18.30;9.70;;;8.10;99.90;;;;;;4984077;28;20034;-83
2024/03/09 08:12:52;;;;;;;17.80;9.15;;;7.90;99.90;;;;;;4969853;28;20027;-84
2024/03/09 08:15:18;;;;;;;17.02;10.30;;;8.00;99.90;;;;;;4968200;28;20043;-86
2024/03/09 08:17:48;;;;;;;20.75;10.32;;;8.50;99.90;;;;;;4966579;28;20037;-90
2024/03/09 08:20:15;;;;;;;15.47;9.20;;;8.30;99.90;;;;;;4963251;28;20033;-84
2024/03/09 08:22:45;;;;;;;17.05;9.75;;;8.50;99.90;;;;;;4969948;28;20031;-87
2024/03/09 08:25:12;;;;;;;15.90;8.98;;;8.70;99.90;;;;;;4968048;28;20027;-87
2024/03/09 08:27:42;;;;;;;17.52;10.13;;;8.70;99.90;;;;;;4951682;28;20031;-86
2024/03/09 08:30:15;;;;;;;18.60;10.35;;;9.90;99.90;;;;;;4953685;28;20042;-86
2024/03/09 08:32:44;;;;;;;18.13;9.38;;;8.90;99.90;;;;;;4973418;28;20427;-87
2024/03/09 08:35:15;;;;;;;17.58;9.70;;;7.80;99.90;;;;;;4968589;28;20109;-84
2024/03/09 08:37:41;;;;;;;18.30;9.40;;;9.00;99.90;;;;;;4977572;28;20026;-87
2024/03/09 08:40:30;;;;;;;17.75;9.65;;;9.00;99.90;;;;;;4960594;29;20107;-86
2024/03/09 08:42:56;;;;;;;17.50;9.95;;;9.10;99.90;;;;;;4947400;29;20031;-87
2024/03/09 08:45:23;;;;;;;16.70;9.38;;;9.80;99.90;;;;;;4982286;28;20111;-84
2024/03/09 08:47:51;;;;;;;16.85;10.10;;;9.00;99.90;;;;;;4952057;29;20039;-86
2024/03/09 08:50:17;;;;;;;17.10;9.25;;;9.00;99.90;;;;;;4948989;28;20041;-84
2024/03/09 08:52:44;;;;;;;17.25;9.93;;;9.30;99.90;;;;;;4967661;28;20053;-86
2024/03/09 08:55:11;;;;;;;15.98;9.52;;;9.40;99.90;;;;;;4968093;28;20086;-88
2024/03/09 08:57:42;;;;;;;18.83;9.90;;;9.50;99.90;;;;;;4976152;28;20114;-87
2024/03/09 09:00:08;;;;;;;19.30;9.85;;;9.90;99.90;;;;;;4965989;28;20018;-86
2024/03/09 09:02:37;;;;;;;16.63;9.43;;;9.90;99.90;;;;;;4963738;28;20424;-85
2024/03/09 09:05:11;;;;;;;16.58;9.93;;;10.10;99.90;;;;;;4942351;29;20023;-87
2024/03/09 09:07:38;;;;;;;15.00;8.90;;;10.00;99.90;;;;;;4949537;28;20046;-85
2024/03/09 09:10:04;;;;;;;19.52;10.23;;;10.20;99.90;;;;;;4960552;28;20121;-86
2024/03/09 09:12:30;;;;;;;17.40;9.60;;;10.10;99.90;;;;;;4961338;28;20383;-86
2024/03/09 09:14:56;;;;;;;15.80;9.40;;;10.10;99.90;;;;;;4950541;29;20042;-86
2024/03/09 09:17:22;;;;;;;15.32;9.30;;;10.30;99.90;;;;;;4943303;29;20031;-87
2024/03/09 09:19:48;;;;;;;16.92;9.10;;;10.40;99.90;;;;;;4955258;28;20077;-86
2024/03/09 09:22:16;;;;;;;15.00;9.20;;;10.40;99.90;;;;;;4962125;28;20098;-86
2024/03/09 09:24:41;;;;;;;18.23;9.52;;;10.50;99.90;;;;;;4962840;28;20027;-86
2024/03/09 09:27:09;;;;;;;17.58;9.05;;;10.70;99.90;;;;;;4980207;28;20361;-86
2024/03/09 09:29:35;;;;;;;17.40;9.05;;;10.80;99.90;;;;;;4982864;28;20376;-84
2024/03/09 09:32:01;;;;;;;13.95;8.40;;;11.00;99.90;;;;;;4948888;29;20042;-86
2024/03/09 09:34:30;;;;;;;14.65;8.27;;;11.20;99.90;;;;;;4968210;28;20027;-86
2024/03/09 09:36:58;;;;;;;15.93;8.23;;;11.40;99.90;;;;;;4962708;28;20019;-82
2024/03/09 09:39:32;;;;;;;15.45;8.77;;;11.50;99.90;;;;;;4926718;28;20316;-88
2024/03/09 09:41:59;;;;;;;16.30;8.57;;;11.70;99.90;;;;;;4949356;28;20034;-86
2024/03/09 09:44:26;;;;;;;14.63;8.85;;;11.80;99.90;;;;;;4941689;28;20065;-82
2024/03/09 09:46:53;;;;;;;14.57;8.73;;;11.60;99.90;;;;;;4945194;28;20033;-83
2024/03/09 09:49:22;;;;;;;16.30;9.13;;;11.70;99.90;;;;;;4951927;28;20027;-84
2024/03/09 09:51:58;;;;;;;13.82;8.90;;;11.60;99.90;;;;;;4956982;28;20030;-84
2024/03/09 09:54:26;;;;;;;12.90;8.15;;;11.30;99.90;;;;;;4946934;28;20094;-86
2024/03/09 09:56:56;;;;;;;13.80;8.20;;;11.20;99.90;;;;;;4941363;28;20027;-84
2024/03/09 09:59:25;;;;;;;17.23;8.70;;;11.20;99.90;;;;;;4942646;28;20039;-88
2024/03/09 10:01:52;;;;;;;13.88;8.30;;;11.20;99.90;;;;;;4943152;28;20068;-86
2024/03/09 10:04:18;;;;;;;14.90;8.50;;;11.30;99.90;;;;;;4936990;28;20023;-89
2024/03/09 10:06:45;;;;;;;15.13;8.57;;;11.40;99.90;;;;;;4940475;28;20066;-88
2024/03/09 10:09:10;;;;;;;14.95;8.70;;;11.50;99.90;;;;;;4942970;28;20024;-84
2024/03/09 10:11:36;;;;;;;14.82;8.38;;;11.50;99.90;;;;;;4956014;28;20027;-88
2024/03/09 10:14:02;;;;;;;16.05;8.75;;;11.70;99.90;;;;;;4938705;28;20033;-87
2024/03/09 10:16:34;;;;;;;17.27;8.45;;;11.70;99.90;;;;;;4941066;28;20035;-87
2024/03/09 10:19:00;;;;;;;14.60;9.07;;;11.90;99.90;;;;;;4933219;28;20448;-86
2024/03/09 10:21:28;;;;;;;17.30;8.88;;;12.10;99.90;;;;;;4932037;28;20150;-87
2024/03/09 10:24:07;;;;;;;17.30;8.52;;;12.10;99.90;;;;;;4953813;28;20031;-85
2024/03/09 10:26:36;;;;;;;16.58;8.55;;;12.20;99.90;;;;;;4941394;28;20503;-87
2024/03/09 10:29:03;;;;;;;15.60;9.05;;;12.20;99.90;;;;;;4955481;28;20026;-86
2024/03/09 10:31:31;;;;;;;14.90;7.93;;;12.40;99.90;;;;;;4939817;28;20574;-87
2024/03/09 10:33:57;;;;;;;13.13;8.25;;;12.50;99.90;;;;;;4938914;28;20027;-88
2024/03/09 10:36:25;;;;;;;12.48;7.72;;;12.60;99.90;;;;;;4939277;28;20516;-84
2024/03/09 10:38:54;;;;;;;14.88;7.85;;;12.70;99.90;;;;;;4951965;28;20034;-84
2024/03/09 10:41:25;;;;;;;11.88;7.28;;;12.70;99.90;;;;;;4954064;28;20053;-87
2024/03/09 10:43:56;;;;;;;13.20;7.95;;;12.80;99.90;;;;;;4925187;28;20162;-82
2024/03/09 10:46:32;;;;;;;12.70;7.65;;;14.40;99.90;;;;;;4943032;28;20069;-87
2024/03/09 10:48:58;;;;;;;13.32;7.55;;;13.00;99.90;;;;;;4929455;28;20058;-88
2024/03/09 10:51:50;;;;;;;12.15;7.68;;;13.20;99.90;;;;;;4928047;28;20046;-87
2024/03/09 10:54:43;;;;;;;12.25;7.20;;;13.30;99.90;;;;;;4944407;28;20030;-88
2024/03/09 10:57:13;;;;;;;13.27;7.93;;;13.30;99.90;;;;;;4924173;28;20042;-83
2024/03/09 10:59:41;;;;;;;13.05;7.40;;;13.30;99.90;;;;;;4948627;28;20238;-85
2024/03/09 11:02:07;;;;;;;11.63;7.22;;;13.10;99.90;;;;;;4930087;28;20034;-88
2024/03/09 11:04:34;;;;;;;11.75;7.15;;;13.20;99.90;;;;;;4917904;28;20035;-87
2024/03/09 11:07:01;;;;;;;11.05;6.97;;;13.30;99.90;;;;;;4933367;28;20058;-83
2024/03/09 11:09:30;;;;;;;12.93;7.80;;;13.30;99.90;;;;;;4942052;28;20030;-89
2024/03/09 11:12:01;;;;;;;11.85;6.70;;;13.40;99.90;;;;;;4938820;28;20030;-87
2024/03/09 11:14:27;;;;;;;10.38;6.45;;;13.60;99.90;;;;;;4955908;28;20031;-85
2024/03/09 11:16:55;;;;;;;10.75;6.90;;;13.70;99.90;;;;;;4945957;28;20073;-87
2024/03/09 11:19:26;;;;;;;11.40;7.03;;;13.90;99.90;;;;;;4942708;28;20081;-85
2024/03/09 11:21:52;;;;;;;11.48;6.65;;;14.10;99.90;;;;;;4952676;28;20035;-87
2024/03/09 11:24:29;;;;;;;11.02;6.95;;;14.30;99.90;;;;;;4942678;28;20031;-84
2024/03/09 11:26:57;;;;;;;11.00;6.43;;;14.50;99.60;;;;;;4944611;28;20031;-81
2024/03/09 11:29:30;;;;;;;10.68;5.75;;;14.50;99.50;;;;;;4952730;28;20026;-87
2024/03/09 11:32:01;;;;;;;10.80;6.25;;;14.60;99.50;;;;;;4949482;28;20476;-81
2024/03/09 11:34:27;;;;;;;9.95;5.90;;;14.60;99.10;;;;;;4918342;28;20122;-91
2024/03/09 11:36:57;;;;;;;9.88;6.47;;;14.60;99.20;;;;;;4951255;28;20364;-85
2024/03/09 11:39:31;;;;;;;11.57;6.50;;;14.40;99.40;;;;;;4948619;28;20035;-83
2024/03/09 11:42:00;;;;;;;10.13;5.72;;;14.30;99.30;;;;;;4939103;28;20423;-83
2024/03/09 11:44:30;;;;;;;11.00;5.57;;;14.30;99.40;;;;;;4937263;28;20031;-83
2024/03/09 11:46:57;;;;;;;9.65;5.05;;;14.40;99.30;;;;;;4939418;28;20020;-88
2024/03/09 11:49:33;;;;;;;9.30;5.07;;;14.50;99.20;;;;;;4936813;28;20038;-81
2024/03/09 11:51:59;;;;;;;8.68;5.38;;;14.50;98.90;;;;;;4941729;28;20035;-82
2024/03/09 11:54:26;;;;;;;8.63;5.13;;;14.60;98.70;;;;;;4941921;28;20035;-87
2024/03/09 11:56:55;;;;;;;8.70;4.78;;;14.70;98.50;;;;;;4941013;28;20163;-82
2024/03/09 11:59:21;;;;;;;7.63;4.63;;;14.60;98.40;;;;;;4944049;28;20627;-83
2024/03/09 12:01:50;;;;;;;7.32;4.90;;;14.90;98.70;;;;;;4943171;28;20087;-85
2024/03/09 12:04:19;;;;;;;8.25;4.63;;;14.70;98.50;;;;;;4944505;28;20153;-85
2024/03/09 12:06:45;;;;;;;7.65;4.55;;;14.80;98.30;;;;;;4943495;28;20155;-79
2024/03/09 12:09:14;;;;;;;8.43;4.50;;;14.80;98.00;;;;;;4940887;28;20087;-81
2024/03/09 12:11:42;;;;;;;6.30;4.30;;;14.70;98.10;;;;;;4940539;28;20023;-83
2024/03/09 12:14:07;;;;;;;7.65;4.15;;;14.70;98.10;;;;;;4947797;28;20066;-78
2024/03/09 12:16:35;;;;;;;6.70;4.00;;;14.70;98.30;;;;;;4932801;28;20078;-81
2024/03/09 12:19:06;;;;;;;8.95;4.18;;;14.80;97.90;;;;;;4945378;28;20503;-85
2024/03/09 12:21:36;;;;;;;6.85;3.83;;;14.70;97.70;;;;;;4946545;28;20069;-87
2024/03/09 12:24:02;;;;;;;8.65;3.92;;;14.70;97.80;;;;;;4946298;28;20479;-81
2024/03/09 12:26:28;;;;;;;8.27;3.85;;;14.70;97.90;;;;;;4945018;28;20120;-83
2024/03/09 12:28:57;;;;;;;6.57;3.47;;;14.70;98.20;;;;;;4940344;28;20118;-82
2024/03/09 12:31:24;;;;;;;6.47;3.47;;;14.60;98.10;;;;;;4945055;28;20026;-81
2024/03/09 12:33:51;;;;;;;6.32;3.38;;;14.70;98.30;;;;;;4947757;28;20033;-81
2024/03/09 12:36:20;;;;;;;5.70;3.40;;;14.80;98.10;;;;;;4950598;28;20018;-85
2024/03/09 12:38:47;;;;;;;5.95;3.50;;;14.80;98.10;;;;;;4949599;28;20645;-81
2024/03/09 12:41:30;;;;;;;7.30;3.25;;;14.90;97.80;;;;;;4940458;28;22877;-81
2024/03/09 12:44:03;;;;;;;9.50;3.10;;;14.90;97.90;;;;;;4957176;28;20073;-86
2024/03/09 12:46:33;;;;;;;5.82;2.95;;;14.90;97.60;;;;;;4953882;28;20404;-83
2024/03/09 12:49:08;;;;;;;5.95;3.20;;;14.90;97.90;;;;;;4935716;28;20042;-84
2024/03/09 12:51:41;;;;;;;5.53;3.00;;;15.00;97.40;;;;;;4956360;28;21144;-80
2024/03/09 12:54:08;;;;;;;5.22;3.00;;;15.00;97.20;;;;;;4945873;28;20491;-83
2024/03/09 12:56:34;;;;;;;4.45;2.80;;;15.10;97.30;;;;;;4948521;28;20484;-87
2024/03/09 12:59:00;;;;;;;5.72;2.83;;;15.30;97.00;;;;;;4945992;28;20042;-88
2024/03/09 13:01:31;;;;;;;8.52;2.85;;;15.30;96.30;;;;;;4936992;28;20404;-80
2024/03/09 13:03:57;;;;;;;;;;;15.30;96.00;;;;;;4947452;28;20027;-84
2024/03/09 13:09:05;;;;;;;5.30;2.85;;;15.70;95.60;;;;;;4950457;28;20050;-85
2024/03/09 13:11:32;;;;;;;5.30;2.85;;;15.70;95.70;;;;;;4942259;28;20075;-81
2024/03/09 13:13:58;;;;;;;5.20;2.70;;;15.60;95.60;;;;;;4943196;28;20028;-85
2024/03/09 13:16:24;;;;;;;5.57;3.10;;;15.60;95.80;;;;;;4960445;28;20053;-84
2024/03/09 13:18:55;;;;;;;4.63;2.70;;;15.50;95.80;;;;;;4960489;28;20029;-86
2024/03/09 13:21:21;;;;;;;5.45;3.17;;;15.50;95.80;;;;;;4950364;28;20069;-86
2024/03/09 13:23:48;;;;;;;6.03;2.90;;;15.30;95.80;;;;;;4950422;28;20031;-82
2024/03/09 13:26:16;;;;;;;4.50;2.60;;;15.50;95.90;;;;;;4932958;28;20078;-81
2024/03/09 13:28:41;;;;;;;4.45;2.25;;;15.30;95.70;;;;;;4946615;28;20035;-83
2024/03/09 13:31:08;;;;;;;4.05;2.60;;;15.40;95.50;;;;;;4950918;28;20100;-79
2024/03/09 13:33:41;;;;;;;5.70;2.60;;;15.40;95.70;;;;;;4961699;28;20023;-82
2024/03/09 13:36:12;;;;;;;4.60;2.60;;;15.40;95.50;;;;;;4948659;28;20545;-85
2024/03/09 13:38:41;;;;;;;5.30;2.50;;;15.30;95.50;;;;;;4942009;28;20447;-85
2024/03/09 13:41:09;;;;;;;5.35;2.70;;;15.30;95.60;;;;;;4948715;28;20030;-87
2024/03/09 13:43:45;;;;;;;4.88;2.28;;;15.30;95.40;;;;;;4945263;28;20038;-87
2024/03/09 13:46:13;;;;;;;4.28;2.55;;;15.30;95.50;;;;;;4941734;28;20023;-86
2024/03/09 13:48:40;;;;;;;6.07;2.60;;;15.40;95.20;;;;;;4950725;28;20031;-89
2024/03/09 13:51:12;;;;;;;4.00;2.33;;;15.40;94.80;;;;;;4959571;28;20026;-85
2024/03/09 13:53:42;;;;;;;4.30;2.30;;;15.40;94.70;;;;;;4944887;28;20019;-84
2024/03/09 13:56:19;;;;;;;4.68;2.08;;;15.30;94.80;;;;;;4949400;28;20026;-82
2024/03/09 13:58:47;;;;;;;4.53;2.20;;;15.40;94.70;;;;;;4962234;28;20038;-83
2024/03/09 14:01:14;;;;;;;3.67;2.20;;;15.40;94.90;;;;;;4962915;28;20480;-82
2024/03/09 14:03:44;;;;;;;3.58;1.90;;;16.70;95.10;;;;;;4945245;28;20030;-89
2024/03/09 14:06:11;;;;;;;3.30;1.85;;;15.40;94.60;;;;;;4953500;28;20022;-84
2024/03/09 14:08:39;;;;;;;2.78;1.83;;;15.40;94.50;;;;;;4965433;28;20607;-86